(°C)
17°
17°
18°
19°
20°
22°
23°
(°C)
18°
18°
19°
20°
21°
23°
24°
NNO
N
N
NNE
NNE
N
N
(km/h)
2-6
2-5
2-6
3-7
3-8
3-8
2-8
(mm)
0
0
0
0
0
0
0
(%)
0
0
0
0
0
0
0

Élévation du soleil

/ -11.7°
sun-icon
UV 8
05:36
20:22
Dernier croissant (349°)
05:00
19:53

METAR pour Wilmington Manor (KILG)

Heure Conditions Température/
Point de rosée
Vent Visibilité Météo Nuages Pression Changement Brut
VFR 17.2°C / 13.3°C 10º 6kt >10km - Clear 1014 - KILG 290751Z AUTO 01006KT 10SM CLR 17/13 A2997 RMK AO2 SLP147 T01720133
VFR 18.3°C / 13.3°C 360º 7kt >10km - Few Clouds 4200ft 1014 - KILG 290651Z AUTO 36007KT 10SM FEW042 18/13 A2996 RMK AO2 SLP145 T01830133
VFR 19.4°C / 14.4°C 360º 5kt >10km - Clear 1014 - KILG 290551Z AUTO 36005KT 10SM CLR 19/14 A2996 RMK AO2 SLP145 T01940144 10239 20183 51018
VFR 19.4°C / 15°C 360º 6kt >10km - Clear 1014 - KILG 290451Z AUTO 36006KT 10SM CLR 19/15 A2995 RMK AO2 SLP142 T01940150 402670183
VFR 20°C / 15°C 340º 3kt >10km - Few Clouds 5000ft 1013 - KILG 290351Z AUTO 34003KT 10SM FEW050 20/15 A2994 RMK AO2 SLP138 T02000150
VFR 21.1°C / 15°C 290º 9kt >10km - Clear 1012 - KILG 290251Z AUTO 29009KT 10SM CLR 21/15 A2991 RMK AO2 SLP127 T02110150 51021
VFR 22.2°C / 15°C 260º 8kt >10km - Broken Clouds 7500ft
Broken Clouds 8500ft
1012 - KILG 290151Z 26008KT 10SM BKN075 BKN085 22/15 A2989 RMK AO2 SLP121 T02220150
VFR 21.7°C / 15°C 250º 5kt >10km - Few Clouds 8500ft 1011 - KILG 290051Z 25005KT 10SM FEW085 22/15 A2986 RMK AO2 SLP113 T02170150
VFR 23.9°C / 14.4°C 250º 7kt >10km - Broken Clouds 6000ft 1010 - KILG 282351Z 25007KT 10SM BKN060 24/14 A2984 RMK AO2 SLP106 60002 T02390144 10267 20211 53012
VFR 25°C / 13.9°C 280º 6kt >10km - Few Clouds 9000ft 1010 - KILG 282251Z 28006KT 10SM FEW090 25/14 A2983 RMK AO2 SLP100 T02500139
VFR 25.6°C / 14.4°C 300º 5kt >10km - Scattered Clouds 9000ft 1009 - KILG 282151Z 30005KT 10SM SCT090 26/14 A2982 RMK AO2 SLP096 T02560144
VFR 25°C / 15°C 310º 9kt >10km - Few Clouds 4600ft
Scattered Clouds 6000ft
Broken Clouds 8000ft
1009 - KILG 282051Z 31009KT 10SM FEW046 SCT060 BKN080 25/15 A2981 RMK AO2 SLP094 60002 T02500150 52010
VFR 25°C / 15.6°C 320º 8kt >10km - Scattered Clouds 3900ft
Scattered Clouds 4700ft
1008 - KILG 281951Z 32008KT 10SM SCT039 SCT047 25/16 A2979 RMK AO2 SLP089 T02500156
VFR 23.3°C / 15.6°C 260º 11kt >10km 0.51mm precipitation Broken Clouds 10000ft 1008 - KILG 281851Z 26011KT 10SM BKN100 23/16 A2980 RMK AO2 LTG DSNT E RAB1752E12 SLP089 P0002 T02330156
VFR 23.9°C / 16.7°C 260º 11kt >10km 0.51mm precipitation Clear - KILG 281835Z 26011KT 10SM CLR 24/17 A2980 RMK AO2 LTG DSNT E RAB1752E12 P0002 T02390167
VFR 21.7°C / 16.7°C 270º 12kt Gust 19kt >10km in the Vicinity Thunderstorm 0.51mm precipitation Few Clouds 4100ft
Few Clouds 6000ft
Scattered Clouds 9000ft
- KILG 281815Z 27012G19KT 10SM VCTS FEW041 FEW060 SCT090 22/17 A2980 RMK AO2 LTG DSNT NE AND E RAB1752E12 P0002 T02170167
VFR 24.4°C / 14.4°C 290º 15kt >10km - Few Clouds 4600ft
Few Clouds 7000ft
Scattered Clouds 9000ft
1008 - KILG 281751Z 29015KT 10SM FEW046 FEW070 SCT090 24/14 A2978 RMK AO2 LTG DSNT NE SLP084 T02440144 10261 20189 56001
VFR 25.6°C / 15°C 310º 11kt >10km - Few Clouds 4200ft
Few Clouds 4900ft
Scattered Clouds 5500ft
1008 - KILG 281651Z 31011KT 10SM FEW042 FEW049 SCT055 26/15 A2978 RMK AO2 SLP084 T02560150
VFR 23.3°C / 15°C 280º 8kt >10km - Scattered Clouds 3700ft 1008 - KILG 281551Z 28008KT 10SM SCT037 23/15 A2978 RMK AO2 SLP084 T02330150
VFR 23.3°C / 15.6°C 310º 8kt >10km - Few Clouds 2800ft
Scattered Clouds 3500ft
- KILG 281501Z 31008KT 10SM FEW028 SCT035 23/16 A2978 RMK AO2 T02330156
MVFR 22.2°C / 15°C 290º 10kt >10km - Broken Clouds 2800ft
Broken Clouds 3500ft
1008 - KILG 281451Z 29010KT 10SM BKN028 BKN035 22/15 A2978 RMK AO2 SLP085 T02220150 50010
VFR 22.2°C / 16.7°C 310º 12kt Gust 18kt >10km - Scattered Clouds 2000ft 1008 - KILG 281351Z 31012G18KT 10SM SCT020 22/17 A2979 RMK AO2 SLP086 T02220167
VFR 20.6°C / 16.7°C 250º 9kt >10km - Clear 1008 - KILG 281251Z 25009KT 10SM CLR 21/17 A2978 RMK AO2 SLP083 T02060167
VFR 18.9°C / 17.2°C 250º 5kt >10km - Clear 1007 - KILG 281151Z AUTO 25005KT 10SM CLR 19/17 A2975 RMK AO2 SLP075 60000 70036 T01890172 10189 20183 53005

VFR

17.2°C / 13.3°C

[Plus]
Vent 10º 6kt
Visibilité >10km
Météo -
Nuages Clear
Pression 1014
Changement -
Brut KILG 290751Z AUTO 01006KT 10SM CLR 17/13 A2997 RMK AO2 SLP147 T01720133

VFR

18.3°C / 13.3°C

[Plus]
Vent 360º 7kt
Visibilité >10km
Météo -
Nuages Few Clouds 4200ft
Pression 1014
Changement -
Brut KILG 290651Z AUTO 36007KT 10SM FEW042 18/13 A2996 RMK AO2 SLP145 T01830133

VFR

19.4°C / 14.4°C

[Plus]
Vent 360º 5kt
Visibilité >10km
Météo -
Nuages Clear
Pression 1014
Changement -
Brut KILG 290551Z AUTO 36005KT 10SM CLR 19/14 A2996 RMK AO2 SLP145 T01940144 10239 20183 51018

VFR

19.4°C / 15°C

[Plus]
Vent 360º 6kt
Visibilité >10km
Météo -
Nuages Clear
Pression 1014
Changement -
Brut KILG 290451Z AUTO 36006KT 10SM CLR 19/15 A2995 RMK AO2 SLP142 T01940150 402670183

VFR

20°C / 15°C

[Plus]
Vent 340º 3kt
Visibilité >10km
Météo -
Nuages Few Clouds 5000ft
Pression 1013
Changement -
Brut KILG 290351Z AUTO 34003KT 10SM FEW050 20/15 A2994 RMK AO2 SLP138 T02000150

VFR

21.1°C / 15°C

[Plus]
Vent 290º 9kt
Visibilité >10km
Météo -
Nuages Clear
Pression 1012
Changement -
Brut KILG 290251Z AUTO 29009KT 10SM CLR 21/15 A2991 RMK AO2 SLP127 T02110150 51021

VFR

22.2°C / 15°C

[Plus]
Vent 260º 8kt
Visibilité >10km
Météo -
Nuages Broken Clouds 7500ft
Broken Clouds 8500ft
Pression 1012
Changement -
Brut KILG 290151Z 26008KT 10SM BKN075 BKN085 22/15 A2989 RMK AO2 SLP121 T02220150

VFR

21.7°C / 15°C

[Plus]
Vent 250º 5kt
Visibilité >10km
Météo -
Nuages Few Clouds 8500ft
Pression 1011
Changement -
Brut KILG 290051Z 25005KT 10SM FEW085 22/15 A2986 RMK AO2 SLP113 T02170150

VFR

23.9°C / 14.4°C

[Plus]
Vent 250º 7kt
Visibilité >10km
Météo -
Nuages Broken Clouds 6000ft
Pression 1010
Changement -
Brut KILG 282351Z 25007KT 10SM BKN060 24/14 A2984 RMK AO2 SLP106 60002 T02390144 10267 20211 53012

VFR

25°C / 13.9°C

[Plus]
Vent 280º 6kt
Visibilité >10km
Météo -
Nuages Few Clouds 9000ft
Pression 1010
Changement -
Brut KILG 282251Z 28006KT 10SM FEW090 25/14 A2983 RMK AO2 SLP100 T02500139

VFR

25.6°C / 14.4°C

[Plus]
Vent 300º 5kt
Visibilité >10km
Météo -
Nuages Scattered Clouds 9000ft
Pression 1009
Changement -
Brut KILG 282151Z 30005KT 10SM SCT090 26/14 A2982 RMK AO2 SLP096 T02560144

VFR

25°C / 15°C

[Plus]
Vent 310º 9kt
Visibilité >10km
Météo -
Nuages Few Clouds 4600ft
Scattered Clouds 6000ft
Broken Clouds 8000ft
Pression 1009
Changement -
Brut KILG 282051Z 31009KT 10SM FEW046 SCT060 BKN080 25/15 A2981 RMK AO2 SLP094 60002 T02500150 52010

VFR

25°C / 15.6°C

[Plus]
Vent 320º 8kt
Visibilité >10km
Météo -
Nuages Scattered Clouds 3900ft
Scattered Clouds 4700ft
Pression 1008
Changement -
Brut KILG 281951Z 32008KT 10SM SCT039 SCT047 25/16 A2979 RMK AO2 SLP089 T02500156

VFR

23.3°C / 15.6°C

[Plus]
Vent 260º 11kt
Visibilité >10km
Météo 0.51mm precipitation
Nuages Broken Clouds 10000ft
Pression 1008
Changement -
Brut KILG 281851Z 26011KT 10SM BKN100 23/16 A2980 RMK AO2 LTG DSNT E RAB1752E12 SLP089 P0002 T02330156

VFR

23.9°C / 16.7°C

[Plus]
Vent 260º 11kt
Visibilité >10km
Météo 0.51mm precipitation
Nuages Clear
Pression
Changement -
Brut KILG 281835Z 26011KT 10SM CLR 24/17 A2980 RMK AO2 LTG DSNT E RAB1752E12 P0002 T02390167

VFR

21.7°C / 16.7°C

[Plus]
Vent 270º 12kt Gust 19kt
Visibilité >10km
Météo in the Vicinity Thunderstorm 0.51mm precipitation
Nuages Few Clouds 4100ft
Few Clouds 6000ft
Scattered Clouds 9000ft
Pression
Changement -
Brut KILG 281815Z 27012G19KT 10SM VCTS FEW041 FEW060 SCT090 22/17 A2980 RMK AO2 LTG DSNT NE AND E RAB1752E12 P0002 T02170167

VFR

24.4°C / 14.4°C

[Plus]
Vent 290º 15kt
Visibilité >10km
Météo -
Nuages Few Clouds 4600ft
Few Clouds 7000ft
Scattered Clouds 9000ft
Pression 1008
Changement -
Brut KILG 281751Z 29015KT 10SM FEW046 FEW070 SCT090 24/14 A2978 RMK AO2 LTG DSNT NE SLP084 T02440144 10261 20189 56001

VFR

25.6°C / 15°C

[Plus]
Vent 310º 11kt
Visibilité >10km
Météo -
Nuages Few Clouds 4200ft
Few Clouds 4900ft
Scattered Clouds 5500ft
Pression 1008
Changement -
Brut KILG 281651Z 31011KT 10SM FEW042 FEW049 SCT055 26/15 A2978 RMK AO2 SLP084 T02560150

VFR

23.3°C / 15°C

[Plus]
Vent 280º 8kt
Visibilité >10km
Météo -
Nuages Scattered Clouds 3700ft
Pression 1008
Changement -
Brut KILG 281551Z 28008KT 10SM SCT037 23/15 A2978 RMK AO2 SLP084 T02330150

VFR

23.3°C / 15.6°C

[Plus]
Vent 310º 8kt
Visibilité >10km
Météo -
Nuages Few Clouds 2800ft
Scattered Clouds 3500ft
Pression
Changement -
Brut KILG 281501Z 31008KT 10SM FEW028 SCT035 23/16 A2978 RMK AO2 T02330156

MVFR

22.2°C / 15°C

[Plus]
Vent 290º 10kt
Visibilité >10km
Météo -
Nuages Broken Clouds 2800ft
Broken Clouds 3500ft
Pression 1008
Changement -
Brut KILG 281451Z 29010KT 10SM BKN028 BKN035 22/15 A2978 RMK AO2 SLP085 T02220150 50010

VFR

22.2°C / 16.7°C

[Plus]
Vent 310º 12kt Gust 18kt
Visibilité >10km
Météo -
Nuages Scattered Clouds 2000ft
Pression 1008
Changement -
Brut KILG 281351Z 31012G18KT 10SM SCT020 22/17 A2979 RMK AO2 SLP086 T02220167

VFR

20.6°C / 16.7°C

[Plus]
Vent 250º 9kt
Visibilité >10km
Météo -
Nuages Clear
Pression 1008
Changement -
Brut KILG 281251Z 25009KT 10SM CLR 21/17 A2978 RMK AO2 SLP083 T02060167

VFR

18.9°C / 17.2°C

[Plus]
Vent 250º 5kt
Visibilité >10km
Météo -
Nuages Clear
Pression 1007
Changement -
Brut KILG 281151Z AUTO 25005KT 10SM CLR 19/17 A2975 RMK AO2 SLP075 60000 70036 T01890172 10189 20183 53005

TAF pour Wilmington Manor (KILG)

From till


From till Wind 350º 5kt. Visibility 10km or more. Few Clouds 5000ft.
From till Wind 330º 5kt. Visibility 10km or more. Few Clouds 10000ft.
From till Wind 250º 5kt. Visibility 10km or more. Few Clouds 6000ft. Scattered Clouds 25000ft.
From till Wind 200º 5kt. Visibility 10km or more. Few Clouds 7000ft. Scattered Clouds 25000ft.
From till Wind variable 3kt. Visibility 10km or more. Few Clouds 25000ft.

Brut: KILG 290520Z 2906/3006 35005KT P6SM FEW050 FM291000 33005KT P6SM FEW100 FM291700 25005KT P6SM FEW060 SCT250 FM292000 20005KT P6SM FEW070 SCT250 FM300000 VRB03KT P6SM FEW250

Radar et prévision de précipitation à court terme pour Wilmington Manor

Bruine
Légère
Modéré
Fort
Très fort
Grêle

Le marqueur est placé sur Wilmington Manor. Cette animation montre le Radar des précipitations pour les dernières heures, ainsi qu'une 1h prévision. La bruine ou les légères chutes de neiges peuvent ne pas être détectées par le radar. L'intensité des précipitations est visible avec un code couleur allant du bleu clair au violet foncé et orange.

Les images satellites pour Wilmington Manor, États Unis

Le marqueur est placé sur Wilmington Manor. [Plus]

L'image satellite en temps réel combine la lumière visible pendant la journée et le rayonnement infrarouge pendant la nuit. La nuit, l'image n'est pas sombre car le rayonnement infrarouge permet de détecter les différences de température. Malheureusement, les nuages bas et le brouillard sont difficiles à distinguer des températures au sol et peuvent donc être presque invisibles pendant la nuit. Les images des satellites Météosat pour l'Europe sont mises à jour en temps réel toutes les 5 minutes. Les images GOES-16/GOES-17 (Amérique du Nord et du Sud) et Himawari (Asie) sont mises à jour toutes les 10 minutes.

Retour vers le haut